createdAt,value
2018-02-23T00:00:21.118Z,20.33
2018-02-23T00:02:47.540Z,20.25
2018-02-23T00:05:13.968Z,20.30
2018-02-23T00:07:46.360Z,20.48
2018-02-23T00:10:13.577Z,20.20
2018-02-23T00:12:39.928Z,21.80
2018-02-23T00:15:06.311Z,19.52
2018-02-23T00:17:33.522Z,20.93
2018-02-23T00:20:00.122Z,22.23
2018-02-23T00:22:39.440Z,20.35
2018-02-23T00:25:05.729Z,21.65
2018-02-23T00:27:32.818Z,20.27
2018-02-23T00:29:59.169Z,20.62
2018-02-23T00:32:25.499Z,19.55
2018-02-23T00:34:51.905Z,20.08
2018-02-23T00:37:19.228Z,22.02
2018-02-23T00:39:45.618Z,19.75
2018-02-23T00:42:12.005Z,19.87
2018-02-23T00:44:38.371Z,19.70
2018-02-23T00:47:04.718Z,19.30
2018-02-23T00:49:31.061Z,19.85
2018-02-23T00:51:57.403Z,21.05
2018-02-23T00:54:23.777Z,20.20
2018-02-23T00:56:50.079Z,20.08
2018-02-23T00:59:16.462Z,20.20
2018-02-23T01:01:43.580Z,21.35
2018-02-23T01:04:10.008Z,20.67
2018-02-23T01:06:36.298Z,19.80
2018-02-23T01:09:02.693Z,19.48
2018-02-23T01:11:29.817Z,20.17
2018-02-23T01:13:56.162Z,18.40
2018-02-23T01:16:22.483Z,20.25
2018-02-23T01:18:48.792Z,20.85
2018-02-23T01:21:15.877Z,19.95
2018-02-23T01:23:42.230Z,19.45
2018-02-23T01:26:08.571Z,20.17
2018-02-23T01:28:34.914Z,20.48
2018-02-23T01:31:01.255Z,19.55
2018-02-23T01:33:27.600Z,19.25
2018-02-23T01:35:53.944Z,18.35
2018-02-23T01:38:20.282Z,20.00
2018-02-23T01:40:46.585Z,20.65
2018-02-23T01:43:12.876Z,20.70
2018-02-23T01:45:39.264Z,20.00
2018-02-23T01:48:05.589Z,18.60
2018-02-23T01:50:44.144Z,20.27
2018-02-23T01:53:10.471Z,18.20
2018-02-23T01:55:36.835Z,19.25
2018-02-23T01:58:03.129Z,21.15
2018-02-23T02:00:29.503Z,19.87
2018-02-23T02:02:56.146Z,19.75
2018-02-23T02:05:22.501Z,19.17
2018-02-23T02:07:48.837Z,18.27
2018-02-23T02:10:15.205Z,18.48
2018-02-23T02:12:41.509Z,18.60
2018-02-23T02:15:07.963Z,19.02
2018-02-23T02:17:34.318Z,19.02
2018-02-23T02:20:00.649Z,17.95
2018-02-23T02:22:27.037Z,18.40
2018-02-23T02:24:53.340Z,17.92
2018-02-23T02:27:19.685Z,18.80
2018-02-23T02:29:46.068Z,16.98
2018-02-23T02:32:12.363Z,17.52
2018-02-23T02:34:38.873Z,18.67
2018-02-23T02:37:05.210Z,16.30
2018-02-23T02:39:31.695Z,17.60
2018-02-23T02:41:58.847Z,16.58
2018-02-23T02:44:26.024Z,18.95
2018-02-23T02:46:53.101Z,17.67
2018-02-23T02:49:19.540Z,18.67
2018-02-23T02:51:45.951Z,18.52
2018-02-23T02:54:13.141Z,16.95
2018-02-23T02:56:39.520Z,18.30
2018-02-23T02:59:05.941Z,17.20
2018-02-23T03:01:33.079Z,17.12
2018-02-23T03:03:59.524Z,16.48
2018-02-23T03:06:25.930Z,17.60
2018-02-23T03:08:52.458Z,15.80
2018-02-23T03:11:18.883Z,17.52
2018-02-23T03:13:46.000Z,17.00
2018-02-23T03:16:12.420Z,19.90
2018-02-23T03:18:38.849Z,18.80
2018-02-23T03:21:05.929Z,17.80
2018-02-23T03:23:32.334Z,17.60
2018-02-23T03:25:58.806Z,16.42
2018-02-23T03:28:25.981Z,17.70
2018-02-23T03:30:52.448Z,16.90
2018-02-23T03:33:18.899Z,17.12
2018-02-23T03:35:45.280Z,17.75
2018-02-23T03:38:11.735Z,17.17
2018-02-23T03:40:38.146Z,16.77
2018-02-23T03:43:04.510Z,17.50
2018-02-23T03:45:30.845Z,17.12
2018-02-23T03:47:57.182Z,17.67
2018-02-23T03:50:23.581Z,17.05
2018-02-23T03:52:49.853Z,16.92
2018-02-23T03:55:16.177Z,16.75
2018-02-23T03:57:42.533Z,16.67
2018-02-23T04:00:08.943Z,16.37
2018-02-23T04:02:35.288Z,15.52
2018-02-23T04:05:01.680Z,16.12
2018-02-23T04:07:28.026Z,15.25
2018-02-23T04:09:54.317Z,15.00
2018-02-23T04:12:20.601Z,14.45
2018-02-23T04:14:47.637Z,15.80
2018-02-23T04:17:14.663Z,16.02
2018-02-23T04:19:40.982Z,14.00
2018-02-23T04:22:07.277Z,13.68
2018-02-23T04:24:33.614Z,13.88
2018-02-23T04:26:59.900Z,14.00
2018-02-23T04:29:26.196Z,13.27
2018-02-23T04:31:52.491Z,12.90
2018-02-23T04:34:18.771Z,13.35
2018-02-23T04:36:45.088Z,13.85
2018-02-23T04:39:11.381Z,13.82
2018-02-23T04:41:37.700Z,11.75
2018-02-23T04:44:03.973Z,11.98
2018-02-23T04:46:30.264Z,13.02
2018-02-23T04:48:56.555Z,11.77
2018-02-23T04:51:22.874Z,13.10
2018-02-23T04:53:49.198Z,11.40
2018-02-23T04:56:15.485Z,12.23
2018-02-23T04:58:41.835Z,13.27
2018-02-23T05:01:08.230Z,11.88
2018-02-23T05:03:34.547Z,11.82
2018-02-23T05:06:01.654Z,12.37
2018-02-23T05:08:27.953Z,13.38
2018-02-23T05:10:55.040Z,12.93
2018-02-23T05:13:21.397Z,13.88
2018-02-23T05:15:47.761Z,14.85
2018-02-23T05:18:14.918Z,14.38
2018-02-23T05:20:41.216Z,15.07
2018-02-23T05:23:07.574Z,14.23
2018-02-23T05:25:33.961Z,15.85
2018-02-23T05:28:00.482Z,17.92
2018-02-23T05:30:26.820Z,16.65
2018-02-23T05:32:53.395Z,16.58
2018-02-23T05:35:19.760Z,15.50
2018-02-23T05:37:46.046Z,13.88
2018-02-23T05:40:14.373Z,13.95
2018-02-23T05:42:40.689Z,15.57
2018-02-23T05:45:07.057Z,14.35
2018-02-23T05:47:33.375Z,14.48
2018-02-23T05:49:59.877Z,15.95
2018-02-23T05:52:26.257Z,14.95
2018-02-23T05:54:53.336Z,14.63
2018-02-23T05:57:19.609Z,15.80
2018-02-23T05:59:45.910Z,16.00
2018-02-23T06:02:13.034Z,15.20
2018-02-23T06:04:39.433Z,14.63
2018-02-23T06:07:05.768Z,15.20
2018-02-23T06:09:32.141Z,16.37
2018-02-23T06:11:58.425Z,14.68
2018-02-23T06:14:24.842Z,14.90
2018-02-23T06:16:51.969Z,16.08
2018-02-23T06:19:25.184Z,15.27
2018-02-23T06:21:51.757Z,15.75
2018-02-23T06:24:18.086Z,14.18
2018-02-23T06:26:44.409Z,13.73
2018-02-23T06:29:11.480Z,15.10
2018-02-23T06:31:37.883Z,13.52
2018-02-23T06:34:04.205Z,11.93
2018-02-23T06:36:30.521Z,12.68
2018-02-23T06:38:56.813Z,12.30
2018-02-23T06:41:23.873Z,9.40
2018-02-23T06:43:50.166Z,9.52
2018-02-23T06:46:16.509Z,10.20
2018-02-23T06:48:42.777Z,9.18
2018-02-23T06:51:09.063Z,10.80
2018-02-23T06:53:35.359Z,10.68
2018-02-23T06:56:01.644Z,9.90
2018-02-23T06:58:30.134Z,11.77
2018-02-23T07:00:56.548Z,7.95
2018-02-23T07:03:22.932Z,9.85
2018-02-23T07:05:49.233Z,9.32
2018-02-23T07:08:15.600Z,8.85
2018-02-23T07:10:41.916Z,7.50
2018-02-23T07:13:08.304Z,8.75
2018-02-23T07:15:34.700Z,8.70
2018-02-23T07:18:01.036Z,8.70
2018-02-23T07:20:27.428Z,8.98
2018-02-23T07:22:53.745Z,8.50
2018-02-23T07:25:20.112Z,10.32
2018-02-23T07:27:46.413Z,8.10
2018-02-23T07:30:12.781Z,8.93
2018-02-23T07:32:39.116Z,7.30
2018-02-23T07:35:05.580Z,9.13
2018-02-23T07:37:31.938Z,9.00
2018-02-23T07:39:58.275Z,7.47
2018-02-23T07:42:24.603Z,8.05
2018-02-23T07:44:51.348Z,8.02
2018-02-23T07:47:17.685Z,8.68
2018-02-23T07:49:44.050Z,8.05
2018-02-23T07:52:10.445Z,8.30
2018-02-23T07:54:36.735Z,8.85
2018-02-23T07:57:03.168Z,8.65
2018-02-23T07:59:29.752Z,8.00
2018-02-23T08:01:56.078Z,10.57
2018-02-23T08:04:22.416Z,9.82
2018-02-23T08:06:48.699Z,8.00
2018-02-23T08:09:15.007Z,8.68
2018-02-23T08:11:41.349Z,8.13
2018-02-23T08:14:07.702Z,7.70
2018-02-23T08:16:34.076Z,8.65
2018-02-23T08:19:00.575Z,8.60
2018-02-23T08:21:27.621Z,7.55
2018-02-23T08:23:54.731Z,8.80
2018-02-23T08:26:21.065Z,8.23
2018-02-23T08:29:02.321Z,6.60
2018-02-23T08:31:29.433Z,8.93
2018-02-23T08:33:56.070Z,8.10
2018-02-23T08:36:22.410Z,7.70
2018-02-23T08:38:48.776Z,8.43
2018-02-23T08:41:15.104Z,6.70
2018-02-23T08:43:41.512Z,8.48
2018-02-23T08:46:07.991Z,8.30
2018-02-23T08:48:35.080Z,8.82
2018-02-23T08:51:01.371Z,8.02
2018-02-23T08:53:27.761Z,6.82
2018-02-23T08:55:54.101Z,8.32
2018-02-23T08:58:20.381Z,8.43
2018-02-23T09:00:46.857Z,7.18
2018-02-23T09:03:13.976Z,8.85
2018-02-23T09:05:40.317Z,6.87
2018-02-23T09:08:06.643Z,7.90
2018-02-23T09:10:32.949Z,8.02
2018-02-23T09:12:59.344Z,8.35
2018-02-23T09:15:25.728Z,8.68
2018-02-23T09:17:52.104Z,9.02
2018-02-23T09:20:19.169Z,6.62
2018-02-23T09:22:46.281Z,7.60
2018-02-23T09:25:12.580Z,7.82
2018-02-23T09:27:38.952Z,7.55
2018-02-23T09:30:05.312Z,8.10
2018-02-23T09:32:33.560Z,7.35
2018-02-23T09:34:59.853Z,8.30
2018-02-23T09:37:26.173Z,7.15
2018-02-23T09:39:52.488Z,6.85
2018-02-23T09:42:18.869Z,6.97
2018-02-23T09:44:45.180Z,7.50
2018-02-23T09:47:11.624Z,6.72
2018-02-23T09:49:37.902Z,8.13
2018-02-23T09:52:04.248Z,7.53
2018-02-23T09:54:30.797Z,7.95
2018-02-23T09:56:57.131Z,7.60
2018-02-23T09:59:23.481Z,8.10
2018-02-23T10:01:49.807Z,7.57
2018-02-23T10:04:16.191Z,8.75
2018-02-23T10:06:42.548Z,7.82
2018-02-23T10:09:08.870Z,7.65
2018-02-23T10:11:35.198Z,8.02
2018-02-23T10:14:01.609Z,8.80
2018-02-23T10:16:28.695Z,9.23
2018-02-23T10:18:55.105Z,7.90
2018-02-23T10:21:21.493Z,8.80
2018-02-23T10:23:47.860Z,9.48
2018-02-23T10:26:14.987Z,8.98
2018-02-23T10:28:41.425Z,8.10
2018-02-23T10:31:08.529Z,7.97
2018-02-23T10:33:34.843Z,7.10
2018-02-23T10:36:01.987Z,6.27
2018-02-23T10:38:29.296Z,7.75
2018-02-23T10:40:55.635Z,7.75
2018-02-23T10:43:22.004Z,6.85
2018-02-23T10:45:48.364Z,7.70
2018-02-23T10:48:14.757Z,7.93
2018-02-23T12:12:37.491Z,9.50
2018-02-23T12:15:03.956Z,10.63
2018-02-23T12:17:31.031Z,9.97
2018-02-23T12:19:57.410Z,10.17
2018-02-23T12:22:23.772Z,9.43
2018-02-23T12:24:50.086Z,8.50
2018-02-23T12:27:16.471Z,8.73
2018-02-23T12:29:42.848Z,9.75
2018-02-23T12:32:09.947Z,9.60
2018-02-23T12:34:36.325Z,10.73
2018-02-23T12:37:02.653Z,10.18
2018-02-23T12:39:28.971Z,11.23
2018-02-23T12:41:55.372Z,9.35
2018-02-23T12:44:21.809Z,10.52
2018-02-23T12:46:49.291Z,10.20
2018-02-23T12:49:16.645Z,10.30
2018-02-23T12:51:43.824Z,10.50
2018-02-23T12:54:10.234Z,10.70
2018-02-23T12:56:36.564Z,11.87
2018-02-23T12:59:03.000Z,10.97
2018-02-23T13:01:29.377Z,11.33
2018-02-23T13:03:55.723Z,12.70
2018-02-23T13:06:22.045Z,11.23
2018-02-23T13:08:48.345Z,12.30
2018-02-23T13:11:14.761Z,12.27
2018-02-23T13:13:41.134Z,12.47
2018-02-23T13:16:07.616Z,13.60
2018-02-23T13:18:33.987Z,11.63
2018-02-23T13:21:00.366Z,13.67
2018-02-23T13:23:26.770Z,12.37
2018-02-23T13:25:53.132Z,14.67
2018-02-23T13:28:25.600Z,12.67
2018-02-23T13:30:51.974Z,13.30
2018-02-23T13:33:19.146Z,14.23
2018-02-23T13:35:45.505Z,17.37
2018-02-23T13:38:11.788Z,13.70
2018-02-23T13:40:38.867Z,14.63
2018-02-23T13:43:05.093Z,17.40
2018-02-23T13:45:32.137Z,17.40
2018-02-23T13:47:58.503Z,14.00
2018-02-23T13:50:24.864Z,13.60
2018-02-23T13:52:51.183Z,14.13
2018-02-23T13:55:18.276Z,14.70
2018-02-23T13:57:44.568Z,13.43
2018-02-23T14:00:10.942Z,12.63
2018-02-23T14:02:38.061Z,13.70
2018-02-23T14:05:04.586Z,13.13
2018-02-23T14:07:31.992Z,12.77
2018-02-23T14:09:58.512Z,12.47
2018-02-23T14:12:24.864Z,12.17
2018-02-23T14:14:51.246Z,11.70
2018-02-23T14:17:18.376Z,12.30
2018-02-23T14:19:44.683Z,12.60
2018-02-23T14:22:10.989Z,12.07
2018-02-23T14:24:37.388Z,12.63
2018-02-23T14:27:03.672Z,12.40
2018-02-23T14:29:30.356Z,11.00
2018-02-23T14:31:56.724Z,11.40
2018-02-23T14:34:23.003Z,11.03
2018-02-23T14:36:50.121Z,10.47
2018-02-23T14:39:16.436Z,10.83
2018-02-23T14:41:43.608Z,10.73
2018-02-23T14:44:10.659Z,11.77
2018-02-23T14:46:37.048Z,10.20
2018-02-23T14:49:16.412Z,10.60
2018-02-23T14:51:42.693Z,9.20
2018-02-23T14:54:09.092Z,9.83
2018-02-23T14:56:35.438Z,9.40
2018-02-23T14:59:02.571Z,8.67
2018-02-23T15:01:29.555Z,10.10
2018-02-23T15:03:55.896Z,9.60
2018-02-23T15:06:22.215Z,10.00
2018-02-23T15:08:49.260Z,10.17
2018-02-23T15:11:15.611Z,9.83
2018-02-23T15:13:42.808Z,9.60
2018-02-23T15:16:09.140Z,9.50
2018-02-23T15:18:35.474Z,9.60
2018-02-23T15:21:02.563Z,10.30
2018-02-23T15:23:28.787Z,9.77
2018-02-23T15:25:55.919Z,9.00
2018-02-23T15:28:22.153Z,8.37
2018-02-23T15:31:00.647Z,8.97
2018-02-23T15:33:27.237Z,8.90
2018-02-23T15:35:53.505Z,9.20
2018-02-23T15:38:19.868Z,8.63
2018-02-23T15:40:47.216Z,7.90
2018-02-23T15:43:14.263Z,9.80
2018-02-23T15:45:40.658Z,10.07
2018-02-23T15:48:13.159Z,9.70
2018-02-23T15:50:45.668Z,11.33
2018-02-23T15:53:12.000Z,9.47
2018-02-23T15:55:38.348Z,9.70
2018-02-23T15:58:10.695Z,11.13
2018-02-23T16:00:38.713Z,11.57
2018-02-23T16:03:08.311Z,10.33
2018-02-23T16:05:35.377Z,10.50
2018-02-23T16:08:02.019Z,7.90
2018-02-23T16:10:28.356Z,9.20
2018-02-23T16:12:54.695Z,8.13
2018-02-23T16:15:23.197Z,9.20
2018-02-23T16:17:50.242Z,8.97
2018-02-23T16:20:20.504Z,9.13
2018-02-23T16:22:47.516Z,9.73
2018-02-23T16:25:13.811Z,9.13
2018-02-23T16:27:40.054Z,9.20
2018-02-23T16:30:06.468Z,9.83
2018-02-23T16:32:32.820Z,9.30
2018-02-23T16:34:59.083Z,9.10
2018-02-23T16:37:25.341Z,9.45
2018-02-23T16:39:51.603Z,9.83
2018-02-23T16:42:17.846Z,8.35
2018-02-23T16:44:45.069Z,8.93
2018-02-23T16:47:12.110Z,9.03
2018-02-23T16:49:38.618Z,8.68
2018-02-23T16:52:05.143Z,9.53
2018-02-23T16:54:31.423Z,9.47
2018-02-23T16:56:58.429Z,9.87
2018-02-23T16:59:25.580Z,10.45
2018-02-23T17:01:52.563Z,9.77
2018-02-23T17:04:18.821Z,10.10
2018-02-23T17:06:47.537Z,10.00
2018-02-23T17:09:13.980Z,9.82
2018-02-23T17:11:43.952Z,9.88
2018-02-23T17:14:12.570Z,8.27
2018-02-23T17:16:39.095Z,10.40
2018-02-23T17:19:05.491Z,14.07
2018-02-23T17:21:33.489Z,18.45
2018-02-23T17:24:00.584Z,17.65
2018-02-23T17:26:26.959Z,17.95
2018-02-23T17:28:55.591Z,15.40
2018-02-23T17:31:23.701Z,13.85
2018-02-23T17:33:50.020Z,12.60
2018-02-23T17:36:16.560Z,10.53
2018-02-23T17:38:42.928Z,9.32
2018-02-23T17:41:10.008Z,10.07
2018-02-23T17:43:36.480Z,9.60
2018-02-23T17:46:02.948Z,11.12
2018-02-23T17:48:29.297Z,9.30
2018-02-23T17:50:55.968Z,10.38
2018-02-23T17:53:22.314Z,11.35
2018-02-23T17:55:48.636Z,11.10
2018-02-23T17:58:16.340Z,12.10
2018-02-23T18:00:42.651Z,9.70
2018-02-23T18:03:09.030Z,9.25
2018-02-23T18:05:35.556Z,9.52
2018-02-23T18:08:01.925Z,10.00
2018-02-23T18:10:28.263Z,9.68
2018-02-23T18:12:54.821Z,9.90
2018-02-23T18:15:21.226Z,15.57
2018-02-23T18:17:48.335Z,11.52
2018-02-23T18:20:15.116Z,10.30
2018-02-23T18:22:42.817Z,10.07
2018-02-23T18:25:09.977Z,9.00
2018-02-23T18:27:36.666Z,10.45
2018-02-23T18:30:04.323Z,9.55
2018-02-23T18:32:31.557Z,10.82
2018-02-23T18:34:58.289Z,12.35
2018-02-23T18:37:24.875Z,10.50
2018-02-23T18:39:52.168Z,11.77
2018-02-23T18:42:19.246Z,14.68
2018-02-23T18:44:45.684Z,13.57
2018-02-23T18:47:12.285Z,11.77
2018-02-23T18:49:39.497Z,11.40
2018-02-23T18:52:06.389Z,9.40
2018-02-23T18:54:33.196Z,8.65
2018-02-23T18:57:00.319Z,9.52
2018-02-23T18:59:27.497Z,9.50
2018-02-23T19:01:54.339Z,9.57
2018-02-23T19:04:21.113Z,8.23
2018-02-23T19:06:47.944Z,9.68
2018-02-23T19:09:14.603Z,9.52
2018-02-23T19:11:41.549Z,10.48
2018-02-23T19:14:08.298Z,9.85
2018-02-23T19:16:34.924Z,12.07
2018-02-23T19:19:01.660Z,9.95
2018-02-23T19:21:28.189Z,8.50
2018-02-23T19:23:54.749Z,9.13
2018-02-23T19:26:21.481Z,8.63
2018-02-23T19:28:47.902Z,9.85
2018-02-23T19:31:14.306Z,9.98
2018-02-23T19:33:42.035Z,8.63
2018-02-23T19:36:08.487Z,9.75
2018-02-23T19:38:34.898Z,8.27
2018-02-23T19:41:01.933Z,7.55
2018-02-23T19:43:29.045Z,8.13
2018-02-23T19:45:55.489Z,9.25
2018-02-23T19:48:22.076Z,9.05
2018-02-23T19:50:49.475Z,9.30
2018-02-23T19:53:16.649Z,8.40
2018-02-23T19:55:44.059Z,8.68
2018-02-23T19:58:10.446Z,9.35
2018-02-23T20:00:36.816Z,10.38
2018-02-23T20:03:03.580Z,9.85
2018-02-23T20:05:30.057Z,8.50
2018-02-23T20:07:56.640Z,8.77
2018-02-23T20:10:24.119Z,10.80
2018-02-23T20:12:50.476Z,9.63
2018-02-23T20:15:17.730Z,9.13
2018-02-23T20:17:46.130Z,10.25
2018-02-23T20:20:13.453Z,9.52
2018-02-23T20:22:40.001Z,10.73
2018-02-23T20:25:06.384Z,9.50
2018-02-23T20:27:32.880Z,9.70
2018-02-23T20:29:59.300Z,9.35
2018-02-23T20:32:25.778Z,8.63
2018-02-23T20:34:52.173Z,9.85
2018-02-23T20:37:19.385Z,8.80
2018-02-23T20:39:45.819Z,8.95
2018-02-23T20:42:12.294Z,9.75
2018-02-23T20:44:38.713Z,9.93
2018-02-23T20:47:05.213Z,8.77
2018-02-23T20:49:31.726Z,8.82
2018-02-23T20:51:58.191Z,8.85
2018-02-23T20:54:24.583Z,9.10
2018-02-23T20:56:51.696Z,9.50
2018-02-23T20:59:18.116Z,9.05
2018-02-23T21:01:44.550Z,9.57
2018-02-23T21:04:11.006Z,10.95
2018-02-23T21:06:37.428Z,9.70
2018-02-23T21:09:04.664Z,8.38
2018-02-23T21:11:31.472Z,9.77
2018-02-23T21:13:57.943Z,9.45
2018-02-23T21:16:24.341Z,8.27
2018-02-23T21:18:50.856Z,10.23
2018-02-23T21:21:17.229Z,9.20
2018-02-23T21:23:44.431Z,9.23
2018-02-23T21:26:10.924Z,9.15
2018-02-23T21:28:38.132Z,8.60
2018-02-23T21:31:05.326Z,8.55
2018-02-23T21:33:31.844Z,7.90
2018-02-23T21:35:59.022Z,9.05
2018-02-23T21:38:25.456Z,8.85
2018-02-23T21:40:51.950Z,9.15
2018-02-23T21:43:18.361Z,8.80
2018-02-23T21:45:45.531Z,8.80
2018-02-23T21:48:11.944Z,8.75
2018-02-23T21:50:38.451Z,9.05
2018-02-23T21:53:04.861Z,7.95
2018-02-23T21:55:32.053Z,8.68
2018-02-23T21:57:58.514Z,9.27
2018-02-23T22:00:24.933Z,8.25
2018-02-23T22:02:51.407Z,8.82
2018-02-23T22:05:18.664Z,7.80
2018-02-23T22:07:45.107Z,7.22
2018-02-23T22:10:11.499Z,8.43
2018-02-23T22:12:38.737Z,8.90
2018-02-23T22:15:06.180Z,8.25
2018-02-23T22:17:32.868Z,8.90
2018-02-23T22:19:59.240Z,8.13
2018-02-23T22:22:26.488Z,8.88
2018-02-23T22:24:52.865Z,9.15
2018-02-23T22:27:20.330Z,9.45
2018-02-23T22:29:46.844Z,9.90
2018-02-23T22:32:13.272Z,8.32
2018-02-23T22:34:39.707Z,8.15
2018-02-23T22:37:06.141Z,8.77
2018-02-23T22:39:32.652Z,9.55
2018-02-23T22:41:59.108Z,9.85
2018-02-23T22:44:25.603Z,10.68
2018-02-23T22:46:52.043Z,10.88
2018-02-23T22:49:18.497Z,9.80
2018-02-23T22:51:44.931Z,9.90
2018-02-23T22:54:11.348Z,8.60
2018-02-23T22:56:37.836Z,9.57
2018-02-23T22:59:04.274Z,10.07
2018-02-23T23:01:30.700Z,10.20
2018-02-23T23:03:57.821Z,9.13
2018-02-23T23:06:24.256Z,9.82
2018-02-23T23:08:50.674Z,9.95
2018-02-23T23:11:17.824Z,9.10
2018-02-23T23:13:44.256Z,8.32
2018-02-23T23:16:10.695Z,9.95
2018-02-23T23:18:37.153Z,10.75
2018-02-23T23:21:04.369Z,9.95
2018-02-23T23:23:30.723Z,8.35
2018-02-23T23:25:57.169Z,10.32
2018-02-23T23:28:23.524Z,9.68
2018-02-23T23:30:50.005Z,7.82
2018-02-23T23:33:16.445Z,9.20
2018-02-23T23:35:42.803Z,9.60
2018-02-23T23:38:09.240Z,7.95
2018-02-23T23:40:35.754Z,8.68
2018-02-23T23:43:02.139Z,8.98
2018-02-23T23:45:29.332Z,9.32
2018-02-23T23:47:55.745Z,10.30
2018-02-23T23:50:22.232Z,9.10
2018-02-23T23:52:48.672Z,9.40
2018-02-23T23:55:15.874Z,9.60
2018-02-23T23:57:42.228Z,8.82
